EFW568X EGKK-LPPR
Flight info
| Callsign | EFW568X |
|---|---|
| Flight time | 1h 52m |
| Altitude | 35000 |
| Route | IMVUR N63 SAM M195 LORKU DCT POZOF DCT LOTEE DCT ELTEP T328 ASPOR |
| Aircraft | A320/M-SDE3FGHIRWY/LB1 |
Departure
| Time | 2026-05-05 14:10 |
|---|---|
| Airport | London Gatwick Airport (EGKK) |
Arrival
| Time | 2026-05-05 16:02 |
|---|---|
| Airport | Francisco de Sá Carneiro Airport (LPPR) |
| Time | Latitude | Longitude | Altitude | Speed | Heading |
|---|---|---|---|---|---|
| 2026-05-05 13:36 | 51.15872 | -0.16918 | 216 ft | 0 kts | 129° |
| 2026-05-05 13:54 | 51.15874 | -0.16921 | 204 ft | 2 kts | 129° |
| 2026-05-05 13:54 | 51.15884 | -0.16941 | 216 ft | 4 kts | 129° |
| 2026-05-05 13:54 | 51.15901 | -0.16974 | 216 ft | 3 kts | 129° |
| 2026-05-05 13:54 | 51.15916 | -0.16999 | 216 ft | 4 kts | 148° |
| 2026-05-05 13:55 | 51.15935 | -0.17008 | 207 ft | 4 kts | 217° |
| 2026-05-05 13:55 | 51.15950 | -0.16979 | 213 ft | 2 kts | 236° |
| 2026-05-05 13:55 | 51.15952 | -0.16976 | 212 ft | 0 kts | 236° |
| 2026-05-05 13:59 | 51.15874 | -0.17068 | 208 ft | 11 kts | 203° |
| 2026-05-05 13:59 | 51.15813 | -0.17133 | 210 ft | 12 kts | 249° |
| 2026-05-05 14:00 | 51.15765 | -0.17482 | 214 ft | 19 kts | 258° |
| 2026-05-05 14:00 | 51.15742 | -0.17654 | 208 ft | 15 kts | 256° |
| 2026-05-05 14:00 | 51.15717 | -0.17818 | 210 ft | 16 kts | 258° |
| 2026-05-05 14:00 | 51.15694 | -0.17998 | 204 ft | 17 kts | 257° |
| 2026-05-05 14:01 | 51.15665 | -0.18193 | 207 ft | 19 kts | 257° |
| 2026-05-05 14:01 | 51.15638 | -0.18402 | 204 ft | 16 kts | 262° |
| 2026-05-05 14:01 | 51.15626 | -0.18503 | 205 ft | 10 kts | 255° |
| 2026-05-05 14:01 | 51.15604 | -0.18641 | 214 ft | 14 kts | 257° |
| 2026-05-05 14:02 | 51.15580 | -0.18803 | 206 ft | 15 kts | 245° |
| 2026-05-05 14:02 | 51.15483 | -0.18804 | 204 ft | 15 kts | 167° |
| 2026-05-05 14:02 | 51.15373 | -0.18765 | 204 ft | 17 kts | 167° |
| 2026-05-05 14:02 | 51.15251 | -0.18723 | 204 ft | 19 kts | 168° |
| 2026-05-05 14:03 | 51.15137 | -0.18717 | 207 ft | 16 kts | 227° |
| 2026-05-05 14:03 | 51.15111 | -0.18888 | 213 ft | 17 kts | 255° |
| 2026-05-05 14:03 | 51.15084 | -0.19071 | 208 ft | 17 kts | 258° |
| 2026-05-05 14:03 | 51.15049 | -0.19251 | 207 ft | 15 kts | 223° |
| 2026-05-05 14:04 | 51.14964 | -0.19295 | 209 ft | 12 kts | 236° |
| 2026-05-05 14:04 | 51.14937 | -0.19480 | 208 ft | 26 kts | 259° |
| 2026-05-05 14:04 | 51.14886 | -0.19840 | 209 ft | 35 kts | 256° |
| 2026-05-05 14:04 | 51.14840 | -0.20174 | 212 ft | 23 kts | 257° |
| 2026-05-05 14:05 | 51.14804 | -0.20413 | 206 ft | 21 kts | 258° |
| 2026-05-05 14:05 | 51.14775 | -0.20641 | 203 ft | 22 kts | 258° |
| 2026-05-05 14:05 | 51.14743 | -0.20885 | 204 ft | 23 kts | 258° |
| 2026-05-05 14:05 | 51.14707 | -0.21130 | 209 ft | 23 kts | 257° |
| 2026-05-05 14:06 | 51.14694 | -0.21231 | 209 ft | 3 kts | 258° |
| 2026-05-05 14:06 | 51.14689 | -0.21270 | 209 ft | 6 kts | 258° |
| 2026-05-05 14:06 | 51.14643 | -0.21335 | 204 ft | 7 kts | 181° |
| 2026-05-05 14:06 | 51.14626 | -0.21331 | 204 ft | 0 kts | 168° |
| 2026-05-05 14:07 | 51.14625 | -0.21330 | 204 ft | 0 kts | 168° |
| 2026-05-05 14:07 | 51.14611 | -0.21325 | 205 ft | 8 kts | 166° |
| 2026-05-05 14:07 | 51.14547 | -0.21281 | 209 ft | 12 kts | 140° |
| 2026-05-05 14:07 | 51.14522 | -0.21151 | 202 ft | 13 kts | 77° |
| 2026-05-05 14:08 | 51.14529 | -0.21106 | 211 ft | 0 kts | 77° |
| 2026-05-05 14:09 | 51.14557 | -0.20909 | 208 ft | 50 kts | 77° |
| 2026-05-05 14:09 | 51.14647 | -0.20269 | 210 ft | 97 kts | 78° |
| 2026-05-05 14:09 | 51.14826 | -0.18953 | 213 ft | 143 kts | 78° |
| 2026-05-05 14:09 | 51.15043 | -0.17320 | 593 ft | 147 kts | 77° |
| 2026-05-05 14:10 | 51.15258 | -0.15717 | 1154 ft | 151 kts | 74° |
| 2026-05-05 14:10 | 51.15496 | -0.13998 | 1428 ft | 170 kts | 74° |
| 2026-05-05 14:10 | 51.15765 | -0.12023 | 1582 ft | 194 kts | 75° |
| 2026-05-05 14:10 | 51.16075 | -0.09790 | 1926 ft | 215 kts | 76° |
| 2026-05-05 14:11 | 51.16403 | -0.07445 | 2618 ft | 220 kts | 73° |
| 2026-05-05 14:11 | 51.17110 | -0.05297 | 2944 ft | 219 kts | 39° |
| 2026-05-05 14:11 | 51.18494 | -0.04496 | 3517 ft | 222 kts | 1° |
| 2026-05-05 14:11 | 51.20037 | -0.04790 | 4255 ft | 226 kts | 349° |
| 2026-05-05 14:12 | 51.21553 | -0.05515 | 5008 ft | 231 kts | 334° |
| 2026-05-05 14:12 | 51.22666 | -0.07373 | 5709 ft | 241 kts | 294° |
| 2026-05-05 14:12 | 51.22939 | -0.10124 | 6055 ft | 267 kts | 268° |
| 2026-05-05 14:12 | 51.22706 | -0.13141 | 6613 ft | 279 kts | 260° |
| 2026-05-05 14:13 | 51.22306 | -0.16198 | 7410 ft | 282 kts | 258° |
| 2026-05-05 14:13 | 51.21866 | -0.19256 | 8183 ft | 285 kts | 258° |
| 2026-05-05 14:13 | 51.21430 | -0.22354 | 8969 ft | 287 kts | 258° |
| 2026-05-05 14:13 | 51.21010 | -0.25481 | 9752 ft | 290 kts | 259° |
| 2026-05-05 14:14 | 51.20608 | -0.28644 | 10436 ft | 293 kts | 259° |
| 2026-05-05 14:14 | 51.20225 | -0.31815 | 11077 ft | 297 kts | 260° |
| 2026-05-05 14:14 | 51.19842 | -0.35072 | 11736 ft | 301 kts | 259° |
| 2026-05-05 14:14 | 51.19435 | -0.38375 | 12379 ft | 305 kts | 259° |
| 2026-05-05 14:15 | 51.19001 | -0.41720 | 12982 ft | 310 kts | 259° |
| 2026-05-05 14:15 | 51.18551 | -0.45111 | 13607 ft | 315 kts | 259° |
| 2026-05-05 14:15 | 51.18092 | -0.48557 | 14198 ft | 319 kts | 259° |
| 2026-05-05 14:15 | 51.17629 | -0.52020 | 14834 ft | 322 kts | 257° |
| 2026-05-05 14:16 | 51.16910 | -0.55428 | 15238 ft | 333 kts | 248° |
| 2026-05-05 14:16 | 51.15997 | -0.58922 | 15361 ft | 351 kts | 247° |
| 2026-05-05 14:16 | 51.15017 | -0.62589 | 15555 ft | 366 kts | 247° |
| 2026-05-05 14:16 | 51.14017 | -0.66299 | 16052 ft | 371 kts | 247° |
| 2026-05-05 14:17 | 51.12996 | -0.70078 | 16636 ft | 373 kts | 247° |
| 2026-05-05 14:17 | 51.11970 | -0.73890 | 17211 ft | 375 kts | 247° |
| 2026-05-05 14:17 | 51.10962 | -0.77652 | 17762 ft | 379 kts | 247° |
| 2026-05-05 14:17 | 51.09926 | -0.81509 | 18342 ft | 380 kts | 247° |
| 2026-05-05 14:18 | 51.08883 | -0.85384 | 18892 ft | 382 kts | 247° |
| 2026-05-05 14:18 | 51.07833 | -0.89275 | 19442 ft | 384 kts | 247° |
| 2026-05-05 14:18 | 51.06778 | -0.93176 | 19996 ft | 386 kts | 246° |
| 2026-05-05 14:18 | 51.05714 | -0.97102 | 20592 ft | 386 kts | 246° |
| 2026-05-05 14:19 | 51.04652 | -1.01032 | 21146 ft | 388 kts | 247° |
| 2026-05-05 14:19 | 51.03603 | -1.04918 | 21692 ft | 389 kts | 246° |
| 2026-05-05 14:19 | 51.02534 | -1.08874 | 22219 ft | 391 kts | 246° |
| 2026-05-05 14:19 | 51.01454 | -1.12856 | 22745 ft | 393 kts | 246° |
| 2026-05-05 14:20 | 51.00364 | -1.16851 | 23246 ft | 395 kts | 246° |
| 2026-05-05 14:20 | 50.99269 | -1.20852 | 23756 ft | 396 kts | 246° |
| 2026-05-05 14:20 | 50.98166 | -1.24866 | 24160 ft | 398 kts | 246° |
| 2026-05-05 14:20 | 50.97036 | -1.28898 | 24526 ft | 400 kts | 242° |
| 2026-05-05 14:21 | 50.95586 | -1.32664 | 24925 ft | 401 kts | 232° |
| 2026-05-05 14:21 | 50.93735 | -1.35953 | 25301 ft | 402 kts | 222° |
| 2026-05-05 14:21 | 50.91563 | -1.38655 | 25644 ft | 404 kts | 213° |
| 2026-05-05 14:21 | 50.89204 | -1.41088 | 26040 ft | 405 kts | 213° |
| 2026-05-05 14:22 | 50.86841 | -1.43533 | 26437 ft | 406 kts | 213° |
| 2026-05-05 14:22 | 50.84477 | -1.45987 | 26771 ft | 409 kts | 213° |
| 2026-05-05 14:22 | 50.82091 | -1.48468 | 27124 ft | 410 kts | 213° |
| 2026-05-05 14:22 | 50.79709 | -1.50946 | 27503 ft | 411 kts | 213° |
| 2026-05-05 14:23 | 50.77307 | -1.53441 | 27848 ft | 414 kts | 213° |
| 2026-05-05 14:23 | 50.74894 | -1.55939 | 28192 ft | 415 kts | 212° |
| 2026-05-05 14:23 | 50.72475 | -1.58440 | 28545 ft | 417 kts | 212° |
| 2026-05-05 14:23 | 50.70038 | -1.60958 | 28879 ft | 419 kts | 212° |
| 2026-05-05 14:24 | 50.67634 | -1.63437 | 29213 ft | 420 kts | 212° |
| 2026-05-05 14:24 | 50.65181 | -1.65959 | 29550 ft | 422 kts | 212° |
| 2026-05-05 14:24 | 50.62722 | -1.68484 | 29987 ft | 421 kts | 212° |
| 2026-05-05 14:24 | 50.60268 | -1.70998 | 30350 ft | 421 kts | 212° |
| 2026-05-05 14:25 | 50.57816 | -1.73505 | 30711 ft | 420 kts | 212° |
| 2026-05-05 14:25 | 50.55361 | -1.76017 | 31082 ft | 420 kts | 212° |
| 2026-05-05 14:25 | 50.52913 | -1.78523 | 31452 ft | 420 kts | 212° |
| 2026-05-05 14:25 | 50.50501 | -1.80992 | 31817 ft | 420 kts | 212° |
| 2026-05-05 14:26 | 50.48062 | -1.83485 | 32189 ft | 419 kts | 212° |
| 2026-05-05 14:26 | 50.46006 | -1.85581 | 32505 ft | 420 kts | 212° |
| 2026-05-05 14:26 | 50.44052 | -1.87573 | 32754 ft | 420 kts | 212° |
| 2026-05-05 14:26 | 50.41599 | -1.90066 | 33097 ft | 421 kts | 212° |
| 2026-05-05 14:27 | 50.39138 | -1.92564 | 33431 ft | 422 kts | 213° |
| 2026-05-05 14:27 | 50.36675 | -1.95065 | 33742 ft | 422 kts | 213° |
| 2026-05-05 14:27 | 50.34208 | -1.97563 | 34063 ft | 423 kts | 213° |
| 2026-05-05 14:27 | 50.31733 | -2.00062 | 34317 ft | 423 kts | 213° |
| 2026-05-05 14:28 | 50.29260 | -2.02556 | 34580 ft | 423 kts | 213° |
| 2026-05-05 14:28 | 50.26823 | -2.05011 | 34829 ft | 424 kts | 213° |
| 2026-05-05 14:28 | 50.24340 | -2.07517 | 34931 ft | 426 kts | 213° |
| 2026-05-05 14:28 | 50.21837 | -2.10014 | 34960 ft | 429 kts | 212° |
| 2026-05-05 14:29 | 50.16759 | -2.14962 | 34962 ft | 430 kts | 211° |
| 2026-05-05 14:29 | 50.11677 | -2.19862 | 34963 ft | 430 kts | 212° |
| 2026-05-05 14:30 | 50.06623 | -2.24744 | 34963 ft | 429 kts | 212° |
| 2026-05-05 14:30 | 50.01567 | -2.29628 | 34972 ft | 431 kts | 212° |
| 2026-05-05 14:31 | 49.96474 | -2.34545 | 34966 ft | 432 kts | 212° |
| 2026-05-05 14:31 | 49.91181 | -2.38954 | 34957 ft | 433 kts | 204° |
| 2026-05-05 14:32 | 49.85716 | -2.42765 | 34952 ft | 434 kts | 204° |
| 2026-05-05 14:32 | 49.80206 | -2.46605 | 34953 ft | 436 kts | 204° |
| 2026-05-05 14:33 | 49.74672 | -2.50469 | 34956 ft | 436 kts | 204° |
| 2026-05-05 14:33 | 49.69134 | -2.54325 | 34980 ft | 436 kts | 204° |
| 2026-05-05 14:34 | 49.63609 | -2.58148 | 34993 ft | 434 kts | 204° |
| 2026-05-05 14:34 | 49.58131 | -2.61926 | 34994 ft | 433 kts | 204° |
| 2026-05-05 14:35 | 49.52635 | -2.65719 | 34993 ft | 433 kts | 204° |
| 2026-05-05 14:35 | 49.47138 | -2.69497 | 34994 ft | 433 kts | 203° |
| 2026-05-05 14:36 | 49.41636 | -2.73262 | 34977 ft | 433 kts | 204° |
| 2026-05-05 14:36 | 49.36165 | -2.77010 | 34969 ft | 434 kts | 204° |
| 2026-05-05 14:37 | 49.30644 | -2.80778 | 34971 ft | 434 kts | 203° |
| 2026-05-05 14:37 | 49.25123 | -2.84536 | 34980 ft | 434 kts | 202° |
| 2026-05-05 14:38 | 49.19607 | -2.88283 | 34990 ft | 433 kts | 202° |
| 2026-05-05 14:38 | 49.14148 | -2.91983 | 34992 ft | 432 kts | 202° |
| 2026-05-05 14:39 | 49.08666 | -2.95701 | 34992 ft | 431 kts | 202° |
| 2026-05-05 14:39 | 49.03188 | -2.99399 | 34992 ft | 431 kts | 202° |
| 2026-05-05 14:40 | 48.97703 | -3.03081 | 34990 ft | 431 kts | 202° |
| 2026-05-05 14:40 | 48.92210 | -3.06757 | 34984 ft | 431 kts | 202° |
| 2026-05-05 14:41 | 48.86757 | -3.10408 | 34970 ft | 432 kts | 203° |
| 2026-05-05 14:41 | 48.81257 | -3.14080 | 34971 ft | 432 kts | 202° |
| 2026-05-05 14:42 | 48.75752 | -3.17745 | 34975 ft | 432 kts | 202° |
| 2026-05-05 14:42 | 48.70234 | -3.21407 | 34975 ft | 433 kts | 203° |
| 2026-05-05 14:43 | 48.64757 | -3.25039 | 34978 ft | 433 kts | 202° |
| 2026-05-05 14:43 | 48.59245 | -3.28688 | 34987 ft | 433 kts | 201° |
| 2026-05-05 14:44 | 48.53718 | -3.32330 | 34985 ft | 433 kts | 202° |
| 2026-05-05 14:44 | 48.48195 | -3.35960 | 34979 ft | 433 kts | 201° |
| 2026-05-05 14:45 | 48.42704 | -3.39565 | 34977 ft | 433 kts | 201° |
| 2026-05-05 14:45 | 48.37182 | -3.43182 | 34984 ft | 433 kts | 202° |
| 2026-05-05 14:46 | 48.31650 | -3.46804 | 34961 ft | 434 kts | 201° |
| 2026-05-05 14:46 | 48.26107 | -3.50415 | 34953 ft | 435 kts | 202° |
| 2026-05-05 14:47 | 48.20545 | -3.54027 | 34954 ft | 436 kts | 202° |
| 2026-05-05 14:47 | 48.15025 | -3.57610 | 34965 ft | 437 kts | 201° |
| 2026-05-05 14:48 | 48.09444 | -3.61232 | 34973 ft | 437 kts | 202° |
| 2026-05-05 14:48 | 48.03870 | -3.64833 | 34963 ft | 435 kts | 202° |
| 2026-05-05 14:49 | 47.98307 | -3.68418 | 34960 ft | 436 kts | 202° |
| 2026-05-05 14:49 | 47.92770 | -3.71970 | 34970 ft | 436 kts | 201° |
| 2026-05-05 14:50 | 47.87194 | -3.75541 | 34976 ft | 436 kts | 202° |
| 2026-05-05 14:50 | 47.81615 | -3.79109 | 34975 ft | 436 kts | 201° |
| 2026-05-05 14:51 | 47.76031 | -3.82678 | 34965 ft | 437 kts | 201° |
| 2026-05-05 14:51 | 47.70497 | -3.86203 | 34962 ft | 438 kts | 202° |
| 2026-05-05 14:52 | 47.66187 | -3.88939 | 34970 ft | 439 kts | 201° |
| 2026-05-05 14:52 | 47.61643 | -3.91822 | 34968 ft | 439 kts | 202° |
| 2026-05-05 14:53 | 47.57165 | -3.94660 | 34975 ft | 439 kts | 201° |
| 2026-05-05 14:53 | 47.52862 | -3.97378 | 34973 ft | 439 kts | 201° |
| 2026-05-05 14:54 | 47.48226 | -4.00303 | 34974 ft | 439 kts | 202° |
| 2026-05-05 14:54 | 47.43096 | -4.03530 | 34971 ft | 440 kts | 201° |
| 2026-05-05 14:55 | 47.37855 | -4.06821 | 34966 ft | 440 kts | 202° |
| 2026-05-05 14:55 | 47.32269 | -4.10318 | 34973 ft | 440 kts | 202° |
| 2026-05-05 14:56 | 47.27071 | -4.13575 | 34962 ft | 440 kts | 202° |
| 2026-05-05 14:56 | 47.22653 | -4.16335 | 34950 ft | 441 kts | 201° |
| 2026-05-05 14:57 | 47.17126 | -4.19775 | 34955 ft | 442 kts | 201° |
| 2026-05-05 14:57 | 47.11935 | -4.23003 | 34952 ft | 442 kts | 201° |
| 2026-05-05 14:58 | 47.06264 | -4.26516 | 34953 ft | 443 kts | 202° |
| 2026-05-05 14:58 | 47.00630 | -4.30214 | 34949 ft | 444 kts | 203° |
| 2026-05-05 14:59 | 46.95049 | -4.34133 | 34952 ft | 445 kts | 205° |
| 2026-05-05 14:59 | 46.89458 | -4.38024 | 34953 ft | 446 kts | 204° |
| 2026-05-05 15:00 | 46.84968 | -4.41086 | 34959 ft | 446 kts | 203° |
| 2026-05-05 15:00 | 46.78409 | -4.45517 | 34961 ft | 447 kts | 204° |
| 2026-05-05 15:01 | 46.72756 | -4.49340 | 34961 ft | 448 kts | 204° |
| 2026-05-05 15:01 | 46.67107 | -4.53153 | 34966 ft | 448 kts | 204° |
| 2026-05-05 15:02 | 46.61493 | -4.56948 | 34975 ft | 448 kts | 203° |
| 2026-05-05 15:02 | 46.55834 | -4.60765 | 34986 ft | 448 kts | 204° |
| 2026-05-05 15:03 | 46.50170 | -4.64557 | 34980 ft | 448 kts | 203° |
| 2026-05-05 15:03 | 46.44513 | -4.68342 | 34983 ft | 448 kts | 204° |
| 2026-05-05 15:04 | 46.38849 | -4.72130 | 34979 ft | 448 kts | 204° |
| 2026-05-05 15:04 | 46.33226 | -4.75876 | 34979 ft | 448 kts | 204° |
| 2026-05-05 15:05 | 46.24721 | -4.81535 | 34980 ft | 449 kts | 205° |
| 2026-05-05 15:06 | 46.19041 | -4.85291 | 34979 ft | 450 kts | 205° |
| 2026-05-05 15:06 | 46.13381 | -4.89024 | 34985 ft | 450 kts | 205° |
| 2026-05-05 15:07 | 46.07682 | -4.92788 | 34990 ft | 451 kts | 205° |
| 2026-05-05 15:07 | 46.01971 | -4.96554 | 34989 ft | 452 kts | 205° |
| 2026-05-05 15:08 | 45.96250 | -5.00309 | 35000 ft | 452 kts | 205° |
| 2026-05-05 15:08 | 45.90530 | -5.04064 | 34997 ft | 452 kts | 205° |
| 2026-05-05 15:09 | 45.84844 | -5.07779 | 35004 ft | 452 kts | 205° |
| 2026-05-05 15:09 | 45.79126 | -5.11513 | 34996 ft | 452 kts | 205° |
| 2026-05-05 15:10 | 45.73389 | -5.15242 | 34986 ft | 453 kts | 206° |
| 2026-05-05 15:10 | 45.67638 | -5.18972 | 34995 ft | 454 kts | 205° |
| 2026-05-05 15:11 | 45.61920 | -5.22673 | 34995 ft | 455 kts | 205° |
| 2026-05-05 15:11 | 45.56161 | -5.26402 | 35000 ft | 455 kts | 205° |
| 2026-05-05 15:12 | 45.50393 | -5.30116 | 35006 ft | 455 kts | 206° |
| 2026-05-05 15:12 | 45.44623 | -5.33824 | 35007 ft | 455 kts | 205° |
| 2026-05-05 15:13 | 45.38892 | -5.37505 | 35009 ft | 455 kts | 205° |
| 2026-05-05 15:13 | 45.33121 | -5.41199 | 35012 ft | 455 kts | 205° |
| 2026-05-05 15:14 | 45.27352 | -5.44888 | 35019 ft | 455 kts | 205° |
| 2026-05-05 15:14 | 45.21583 | -5.48572 | 35014 ft | 455 kts | 205° |
| 2026-05-05 15:15 | 45.15847 | -5.52222 | 35020 ft | 455 kts | 205° |
| 2026-05-05 15:15 | 45.10070 | -5.55885 | 35021 ft | 455 kts | 205° |
| 2026-05-05 15:16 | 45.04288 | -5.59542 | 35030 ft | 455 kts | 205° |
| 2026-05-05 15:16 | 44.98517 | -5.63186 | 35028 ft | 454 kts | 205° |
| 2026-05-05 15:17 | 44.92789 | -5.66808 | 35028 ft | 454 kts | 205° |
| 2026-05-05 15:17 | 44.87016 | -5.70444 | 35035 ft | 454 kts | 205° |
| 2026-05-05 15:18 | 44.81252 | -5.74054 | 35025 ft | 454 kts | 206° |
| 2026-05-05 15:18 | 44.75485 | -5.77664 | 35030 ft | 453 kts | 206° |
| 2026-05-05 15:19 | 44.69756 | -5.81242 | 35034 ft | 453 kts | 205° |
| 2026-05-05 15:19 | 44.64189 | -5.85328 | 35032 ft | 450 kts | 217° |
| 2026-05-05 15:20 | 44.59094 | -5.90421 | 35032 ft | 450 kts | 217° |
| 2026-05-05 15:20 | 44.53980 | -5.95491 | 35038 ft | 450 kts | 217° |
| 2026-05-05 15:21 | 44.48857 | -6.00539 | 35037 ft | 450 kts | 217° |
| 2026-05-05 15:21 | 44.43771 | -6.05549 | 35038 ft | 450 kts | 217° |
| 2026-05-05 15:22 | 44.38655 | -6.10589 | 35032 ft | 450 kts | 217° |
| 2026-05-05 15:22 | 44.33530 | -6.15618 | 35033 ft | 450 kts | 217° |
| 2026-05-05 15:23 | 44.28404 | -6.20638 | 35036 ft | 450 kts | 217° |
| 2026-05-05 15:23 | 44.23310 | -6.25620 | 35037 ft | 450 kts | 218° |
| 2026-05-05 15:24 | 44.18175 | -6.30627 | 35041 ft | 450 kts | 218° |
| 2026-05-05 15:24 | 44.13045 | -6.35620 | 35041 ft | 450 kts | 218° |
| 2026-05-05 15:25 | 44.07914 | -6.40606 | 35050 ft | 450 kts | 218° |
| 2026-05-05 15:25 | 44.02823 | -6.45544 | 35044 ft | 449 kts | 218° |
| 2026-05-05 15:26 | 43.97691 | -6.50504 | 35038 ft | 449 kts | 218° |
| 2026-05-05 15:26 | 43.92566 | -6.55449 | 35050 ft | 449 kts | 218° |
| 2026-05-05 15:27 | 43.87429 | -6.60388 | 35058 ft | 449 kts | 218° |
| 2026-05-05 15:27 | 43.82342 | -6.65285 | 35050 ft | 449 kts | 219° |
| 2026-05-05 15:28 | 43.77219 | -6.70205 | 35061 ft | 448 kts | 218° |
| 2026-05-05 15:28 | 43.72092 | -6.75109 | 35062 ft | 448 kts | 218° |
| 2026-05-05 15:29 | 43.66962 | -6.80006 | 35068 ft | 448 kts | 218° |
| 2026-05-05 15:29 | 43.61869 | -6.84861 | 35043 ft | 448 kts | 219° |
| 2026-05-05 15:30 | 43.56740 | -6.89733 | 35056 ft | 448 kts | 219° |
| 2026-05-05 15:30 | 43.51612 | -6.94604 | 35071 ft | 448 kts | 219° |
| 2026-05-05 15:31 | 43.46477 | -6.99475 | 35075 ft | 448 kts | 219° |
| 2026-05-05 15:31 | 43.41371 | -7.04286 | 35056 ft | 448 kts | 219° |
| 2026-05-05 15:32 | 43.36235 | -7.09118 | 35074 ft | 447 kts | 219° |
| 2026-05-05 15:32 | 43.31100 | -7.13959 | 35082 ft | 447 kts | 219° |
| 2026-05-05 15:33 | 43.25972 | -7.18782 | 35082 ft | 447 kts | 219° |
| 2026-05-05 15:33 | 43.20833 | -7.23599 | 35062 ft | 447 kts | 219° |
| 2026-05-05 15:34 | 43.15737 | -7.28366 | 35067 ft | 447 kts | 220° |
| 2026-05-05 15:34 | 43.10599 | -7.33158 | 35076 ft | 447 kts | 220° |
| 2026-05-05 15:35 | 43.05460 | -7.37942 | 35076 ft | 446 kts | 220° |
| 2026-05-05 15:35 | 43.00324 | -7.42710 | 35081 ft | 446 kts | 220° |
| 2026-05-05 15:36 | 42.95192 | -7.47472 | 35077 ft | 446 kts | 220° |
| 2026-05-05 15:36 | 42.90092 | -7.52194 | 35084 ft | 445 kts | 220° |
| 2026-05-05 15:37 | 42.84969 | -7.56929 | 35082 ft | 445 kts | 220° |
| 2026-05-05 15:37 | 42.79843 | -7.61655 | 35052 ft | 445 kts | 220° |
| 2026-05-05 15:38 | 42.74717 | -7.66363 | 35038 ft | 444 kts | 220° |
| 2026-05-05 15:38 | 42.69641 | -7.71021 | 35069 ft | 443 kts | 220° |
| 2026-05-05 15:39 | 42.64545 | -7.75692 | 35079 ft | 442 kts | 220° |
| 2026-05-05 15:39 | 42.58957 | -7.79379 | 35080 ft | 456 kts | 202° |
| 2026-05-05 15:39 | 42.55896 | -7.80535 | 34696 ft | 459 kts | 201° |
| 2026-05-05 15:40 | 42.53236 | -7.81535 | 33944 ft | 466 kts | 202° |
| 2026-05-05 15:40 | 42.50099 | -7.82708 | 33208 ft | 466 kts | 202° |
| 2026-05-05 15:40 | 42.46982 | -7.83865 | 32546 ft | 461 kts | 202° |
| 2026-05-05 15:40 | 42.43957 | -7.84983 | 31879 ft | 453 kts | 202° |
| 2026-05-05 15:41 | 42.40930 | -7.86104 | 31403 ft | 448 kts | 202° |
| 2026-05-05 15:41 | 42.37933 | -7.87220 | 30915 ft | 445 kts | 203° |
| 2026-05-05 15:41 | 42.34954 | -7.88333 | 30431 ft | 443 kts | 203° |
| 2026-05-05 15:41 | 42.31997 | -7.89439 | 29917 ft | 439 kts | 203° |
| 2026-05-05 15:42 | 42.29061 | -7.90535 | 29446 ft | 435 kts | 203° |
| 2026-05-05 15:42 | 42.26167 | -7.91613 | 28991 ft | 430 kts | 203° |
| 2026-05-05 15:42 | 42.23329 | -7.92665 | 28556 ft | 426 kts | 203° |
| 2026-05-05 15:42 | 42.20479 | -7.93719 | 28117 ft | 423 kts | 203° |
| 2026-05-05 15:43 | 42.17655 | -7.94764 | 27688 ft | 419 kts | 203° |
| 2026-05-05 15:43 | 42.14854 | -7.95804 | 27256 ft | 417 kts | 203° |
| 2026-05-05 15:43 | 42.12063 | -7.96843 | 26800 ft | 415 kts | 203° |
| 2026-05-05 15:43 | 42.09295 | -7.97870 | 26406 ft | 412 kts | 203° |
| 2026-05-05 15:44 | 42.06535 | -7.98894 | 25975 ft | 411 kts | 203° |
| 2026-05-05 15:44 | 42.03784 | -7.99915 | 25535 ft | 410 kts | 203° |
| 2026-05-05 15:44 | 42.01031 | -8.00935 | 25085 ft | 410 kts | 203° |
| 2026-05-05 15:44 | 41.98290 | -8.01948 | 24620 ft | 410 kts | 203° |
| 2026-05-05 15:45 | 41.95570 | -8.02950 | 24174 ft | 410 kts | 203° |
| 2026-05-05 15:45 | 41.92819 | -8.03961 | 23697 ft | 410 kts | 203° |
| 2026-05-05 15:45 | 41.90068 | -8.04974 | 23153 ft | 410 kts | 203° |
| 2026-05-05 15:45 | 41.87329 | -8.05979 | 22777 ft | 405 kts | 202° |
| 2026-05-05 15:46 | 41.84614 | -8.06971 | 22314 ft | 403 kts | 202° |
| 2026-05-05 15:46 | 41.81944 | -8.08017 | 21824 ft | 397 kts | 208° |
| 2026-05-05 15:46 | 41.79508 | -8.09619 | 21463 ft | 384 kts | 217° |
| 2026-05-05 15:46 | 41.77177 | -8.11374 | 21013 ft | 382 kts | 216° |
| 2026-05-05 15:47 | 41.74874 | -8.13097 | 20669 ft | 377 kts | 216° |
| 2026-05-05 15:47 | 41.73358 | -8.14230 | 20345 ft | 376 kts | 216° |
| 2026-05-05 15:47 | 41.70310 | -8.16415 | 19580 ft | 368 kts | 208° |
| 2026-05-05 15:47 | 41.67929 | -8.17555 | 19148 ft | 358 kts | 204° |
| 2026-05-05 15:48 | 41.65610 | -8.18601 | 18739 ft | 346 kts | 204° |
| 2026-05-05 15:48 | 41.63394 | -8.19610 | 18354 ft | 338 kts | 204° |
| 2026-05-05 15:48 | 41.61171 | -8.20635 | 17912 ft | 338 kts | 204° |
| 2026-05-05 15:48 | 41.58954 | -8.21663 | 17513 ft | 336 kts | 204° |
| 2026-05-05 15:49 | 41.56746 | -8.22684 | 17120 ft | 335 kts | 204° |
| 2026-05-05 15:49 | 41.54549 | -8.23692 | 16832 ft | 330 kts | 204° |
| 2026-05-05 15:49 | 41.52718 | -8.24524 | 16686 ft | 324 kts | 204° |
| 2026-05-05 15:49 | 41.50580 | -8.25497 | 16314 ft | 324 kts | 204° |
| 2026-05-05 15:50 | 41.48453 | -8.26465 | 15931 ft | 324 kts | 203° |
| 2026-05-05 15:50 | 41.46320 | -8.27435 | 15547 ft | 323 kts | 203° |
| 2026-05-05 15:50 | 41.44219 | -8.28390 | 15155 ft | 324 kts | 203° |
| 2026-05-05 15:50 | 41.42056 | -8.29377 | 14754 ft | 324 kts | 203° |
| 2026-05-05 15:51 | 41.39951 | -8.30337 | 14367 ft | 324 kts | 202° |
| 2026-05-05 15:51 | 41.37811 | -8.31307 | 13976 ft | 325 kts | 202° |
| 2026-05-05 15:51 | 41.35680 | -8.32270 | 13561 ft | 325 kts | 202° |
| 2026-05-05 15:51 | 41.33528 | -8.33246 | 13154 ft | 325 kts | 202° |
| 2026-05-05 15:52 | 41.31395 | -8.34213 | 12763 ft | 323 kts | 202° |
| 2026-05-05 15:52 | 41.29275 | -8.35176 | 12382 ft | 322 kts | 202° |
| 2026-05-05 15:52 | 41.27160 | -8.36139 | 11984 ft | 320 kts | 202° |
| 2026-05-05 15:52 | 41.25057 | -8.37093 | 11589 ft | 320 kts | 202° |
| 2026-05-05 15:53 | 41.22950 | -8.38045 | 11206 ft | 319 kts | 202° |
| 2026-05-05 15:53 | 41.20850 | -8.38988 | 10818 ft | 319 kts | 202° |
| 2026-05-05 15:53 | 41.18767 | -8.39924 | 10625 ft | 311 kts | 202° |
| 2026-05-05 15:53 | 41.16748 | -8.40830 | 10217 ft | 304 kts | 202° |
| 2026-05-05 15:54 | 41.14758 | -8.41724 | 9668 ft | 299 kts | 201° |
| 2026-05-05 15:54 | 41.12795 | -8.42608 | 9280 ft | 297 kts | 202° |
| 2026-05-05 15:54 | 41.10841 | -8.43491 | 8911 ft | 297 kts | 202° |
| 2026-05-05 15:54 | 41.08883 | -8.44375 | 8553 ft | 297 kts | 202° |
| 2026-05-05 15:55 | 41.06956 | -8.45243 | 8202 ft | 296 kts | 201° |
| 2026-05-05 15:55 | 41.05009 | -8.46117 | 7893 ft | 294 kts | 201° |
| 2026-05-05 15:55 | 41.03077 | -8.47013 | 7474 ft | 295 kts | 207° |
| 2026-05-05 15:55 | 41.01390 | -8.48485 | 7127 ft | 287 kts | 230° |
| 2026-05-05 15:56 | 41.00241 | -8.50522 | 7051 ft | 269 kts | 245° |
| 2026-05-05 15:56 | 40.99630 | -8.52858 | 6459 ft | 272 kts | 264° |
| 2026-05-05 15:56 | 40.99280 | -8.55334 | 6013 ft | 275 kts | 262° |
| 2026-05-05 15:56 | 40.98933 | -8.57823 | 5627 ft | 273 kts | 266° |
| 2026-05-05 15:57 | 40.99196 | -8.60241 | 5259 ft | 266 kts | 298° |
| 2026-05-05 15:57 | 41.00434 | -8.61971 | 4898 ft | 262 kts | 331° |
| 2026-05-05 15:57 | 41.02121 | -8.62796 | 4547 ft | 262 kts | 345° |
| 2026-05-05 15:57 | 41.03895 | -8.63224 | 4188 ft | 262 kts | 350° |
| 2026-05-05 15:58 | 41.05721 | -8.63545 | 3812 ft | 262 kts | 350° |
| 2026-05-05 15:58 | 41.07531 | -8.63866 | 3477 ft | 262 kts | 350° |
| 2026-05-05 15:58 | 41.09306 | -8.64216 | 3068 ft | 253 kts | 348° |
| 2026-05-05 15:58 | 41.11004 | -8.64587 | 2720 ft | 241 kts | 347° |
| 2026-05-05 15:59 | 41.12580 | -8.64958 | 2407 ft | 218 kts | 346° |
| 2026-05-05 15:59 | 41.13989 | -8.65302 | 2169 ft | 194 kts | 346° |
| 2026-05-05 15:59 | 41.15255 | -8.65619 | 1884 ft | 176 kts | 346° |
| 2026-05-05 15:59 | 41.16403 | -8.65914 | 1664 ft | 158 kts | 344° |
| 2026-05-05 16:00 | 41.17414 | -8.66173 | 1462 ft | 142 kts | 344° |
| 2026-05-05 16:00 | 41.18357 | -8.66421 | 1271 ft | 136 kts | 347° |
| 2026-05-05 16:00 | 41.19185 | -8.66664 | 1074 ft | 139 kts | 345° |
| 2026-05-05 16:00 | 41.20110 | -8.66904 | 908 ft | 139 kts | 345° |
| 2026-05-05 16:01 | 41.21049 | -8.67121 | 736 ft | 135 kts | 346° |
| 2026-05-05 16:01 | 41.21956 | -8.67385 | 548 ft | 134 kts | 346° |
| 2026-05-05 16:01 | 41.22881 | -8.67619 | 373 ft | 136 kts | 345° |
| 2026-05-05 16:01 | 41.23789 | -8.67853 | 235 ft | 127 kts | 343° |
| 2026-05-05 16:02 | 41.24529 | -8.68058 | 217 ft | 86 kts | 349° |
| 2026-05-05 16:02 | 41.24954 | -8.68167 | 195 ft | 45 kts | 348° |
| 2026-05-05 16:02 | 41.25240 | -8.68240 | 182 ft | 40 kts | 349° |
| 2026-05-05 16:02 | 41.25481 | -8.68299 | 175 ft | 30 kts | 348° |
| 2026-05-05 16:03 | 41.25597 | -8.68266 | 172 ft | 17 kts | 71° |
| 2026-05-05 16:03 | 41.25607 | -8.68139 | 170 ft | 14 kts | 106° |
| 2026-05-05 16:03 | 41.25534 | -8.68085 | 173 ft | 12 kts | 170° |
| 2026-05-05 16:03 | 41.25452 | -8.68063 | 176 ft | 12 kts | 168° |
| 2026-05-05 16:04 | 41.25374 | -8.68043 | 178 ft | 12 kts | 169° |
| 2026-05-05 16:04 | 41.25239 | -8.68007 | 183 ft | 25 kts | 168° |
| 2026-05-05 16:04 | 41.25076 | -8.67964 | 191 ft | 23 kts | 169° |
| 2026-05-05 16:04 | 41.24920 | -8.67924 | 196 ft | 23 kts | 169° |
| 2026-05-05 16:05 | 41.24785 | -8.67839 | 211 ft | 20 kts | 155° |
| 2026-05-05 16:05 | 41.24656 | -8.67799 | 211 ft | 18 kts | 168° |
| 2026-05-05 16:05 | 41.24540 | -8.67769 | 218 ft | 16 kts | 169° |
| 2026-05-05 16:05 | 41.24439 | -8.67743 | 223 ft | 14 kts | 168° |
| 2026-05-05 16:06 | 41.24350 | -8.67719 | 228 ft | 13 kts | 168° |
| 2026-05-05 16:06 | 41.24266 | -8.67639 | 234 ft | 15 kts | 129° |
| 2026-05-05 16:06 | 41.24193 | -8.67572 | 238 ft | 13 kts | 167° |
| 2026-05-05 16:06 | 41.24098 | -8.67546 | 238 ft | 15 kts | 169° |
| 2026-05-05 16:07 | 41.24027 | -8.67529 | 238 ft | 16 kts | 169° |
| 2026-05-05 16:07 | 41.23911 | -8.67499 | 238 ft | 18 kts | 168° |
| 2026-05-05 16:07 | 41.23786 | -8.67466 | 239 ft | 19 kts | 169° |
| 2026-05-05 16:07 | 41.23702 | -8.67363 | 241 ft | 11 kts | 134° |
| 2026-05-05 16:08 | 41.23633 | -8.67331 | 242 ft | 12 kts | 170° |
| 2026-05-05 16:08 | 41.23557 | -8.67361 | 241 ft | 7 kts | 210° |
| 2026-05-05 16:08 | 41.23530 | -8.67352 | 242 ft | 6 kts | 135° |
| 2026-05-05 16:08 | 41.23516 | -8.67313 | 244 ft | 4 kts | 113° |
| 2026-05-05 16:09 | 41.23512 | -8.67301 | 244 ft | 0 kts | 114° |
| 2026-05-05 16:09 | 41.23511 | -8.67298 | 244 ft | 1 kts | 114° |
| 2026-05-05 16:09 | 41.23506 | -8.67284 | 245 ft | 1 kts | 114° |
| 2026-05-05 16:09 | 41.23506 | -8.67283 | 245 ft | 0 kts | 114° |